Lackey, Virginia
Current Conditions -  °F | °C
As of 7:54 PM on Tuesday 25 Nov 2014 (Local Time) from KPHF Reporting Station
Broken Clouds Broken Clouds  
Wind Chill: 55°   Ceiling: 11000
Heat Index: 55°   Visibility: 10mi
Dew Point: 40°   Wind: 3mph
Humidity: 57%   Direction: 10°N
Pressure: 30.11"   Gusts: NA
Location:  37.23°N, 76.55°W
Report Text: KPHF 260054Z 01003KT 10SM BKN110 13/04 A3011 RMK AO2 RAE03B21E31 SLP194 P0000 T01280044
Loading
Personal Weather Stations






























Interactive Weather Map New forecast layout! Learn more

10-Day Weather Forecast

Advertisements
Track Severe Weather on mobile